createdAt,value
2022-07-27T04:00:27.894Z,64.00
2022-07-27T04:01:27.891Z,64.00
2022-07-27T04:02:27.908Z,72.00
2022-07-27T04:03:27.823Z,80.00
2022-07-27T04:04:27.813Z,92.00
2022-07-27T04:05:29.616Z,88.00
2022-07-27T04:06:27.792Z,100.00
2022-07-27T04:07:27.789Z,104.00
2022-07-27T04:08:27.771Z,116.00
2022-07-27T04:09:27.754Z,120.00
2022-07-27T04:10:27.767Z,128.00
2022-07-27T04:11:32.789Z,128.00
2022-07-27T04:12:27.737Z,132.00
2022-07-27T04:13:27.709Z,152.00
2022-07-27T04:14:27.699Z,140.00
2022-07-27T04:15:27.686Z,140.00
2022-07-27T04:16:29.086Z,156.00
2022-07-27T04:17:55.526Z,160.00
2022-07-27T04:18:28.651Z,184.00
2022-07-27T04:19:27.640Z,180.00
2022-07-27T04:20:27.630Z,176.00
2022-07-27T04:21:27.762Z,176.00
2022-07-27T04:22:33.638Z,176.00
2022-07-27T04:23:27.594Z,176.00
2022-07-27T04:24:27.586Z,188.00
2022-07-27T04:25:27.573Z,208.00
2022-07-27T04:26:27.564Z,232.00
2022-07-27T04:27:27.560Z,248.00
2022-07-27T04:28:27.542Z,268.00
2022-07-27T04:29:27.538Z,288.00
2022-07-27T04:30:27.572Z,328.00
2022-07-27T04:31:27.506Z,316.00
2022-07-27T04:32:27.506Z,332.00
2022-07-27T04:33:32.506Z,308.00
2022-07-27T04:34:27.471Z,312.00
2022-07-27T04:35:27.460Z,300.00
2022-07-27T04:36:27.453Z,300.00
2022-07-27T04:37:27.451Z,308.00
2022-07-27T04:38:27.429Z,332.00
2022-07-27T04:39:27.415Z,336.00
2022-07-27T04:40:27.414Z,364.00
2022-07-27T04:41:29.637Z,336.00
2022-07-27T04:42:27.396Z,364.00
2022-07-27T04:43:29.461Z,360.00
2022-07-27T04:44:32.389Z,316.00
2022-07-27T04:45:27.353Z,296.00
2022-07-27T04:46:27.422Z,296.00
2022-07-27T04:47:27.352Z,324.00
2022-07-27T04:48:27.315Z,316.00
2022-07-27T04:49:27.392Z,328.00
2022-07-27T04:50:27.297Z,324.00
2022-07-27T04:51:31.185Z,348.00
2022-07-27T04:52:28.282Z,352.00
2022-07-27T04:53:27.263Z,368.00
2022-07-27T04:54:27.256Z,360.00
2022-07-27T04:55:32.258Z,372.00
2022-07-27T04:56:27.299Z,384.00
2022-07-27T04:57:27.220Z,384.00
2022-07-27T04:58:27.201Z,380.00
2022-07-27T04:59:27.196Z,396.00
2022-07-27T05:00:27.182Z,396.00
2022-07-27T05:01:31.685Z,396.00
2022-07-27T05:02:28.173Z,468.00
2022-07-27T05:03:27.146Z,484.00
2022-07-27T05:04:27.202Z,488.00
2022-07-27T05:05:27.120Z,496.00
2022-07-27T05:06:32.133Z,476.00
2022-07-27T05:07:27.107Z,496.00
2022-07-27T05:08:27.089Z,532.00
2022-07-27T05:09:27.072Z,528.00
2022-07-27T05:10:27.068Z,520.00
2022-07-27T05:11:27.053Z,588.00
2022-07-27T05:12:27.053Z,648.00
2022-07-27T05:13:27.027Z,668.00
2022-07-27T05:14:27.021Z,720.00
2022-07-27T05:15:27.009Z,712.00
2022-07-27T05:16:29.031Z,728.00
2022-07-27T05:17:32.015Z,732.00
2022-07-27T05:18:26.992Z,724.00
2022-07-27T05:19:40.151Z,772.00
2022-07-27T05:20:27.950Z,824.00
2022-07-27T05:21:26.937Z,848.00
2022-07-27T05:22:26.941Z,916.00
2022-07-27T05:23:26.920Z,968.00
2022-07-27T05:24:26.905Z,956.00
2022-07-27T05:25:26.892Z,948.00
2022-07-27T05:26:26.883Z,1004.00
2022-07-27T05:27:26.880Z,936.00
2022-07-27T05:28:31.884Z,948.00
2022-07-27T05:29:26.850Z,1024.00
2022-07-27T05:30:26.838Z,1064.00
2022-07-27T05:31:26.878Z,1192.00
2022-07-27T05:32:26.902Z,1236.00
2022-07-27T05:33:26.805Z,1152.00
2022-07-27T05:34:26.792Z,1056.00
2022-07-27T05:35:26.788Z,1048.00
2022-07-27T05:36:26.775Z,1000.00
2022-07-27T05:37:26.765Z,1008.00
2022-07-27T05:38:26.763Z,1044.00
2022-07-27T05:39:31.759Z,1088.00
2022-07-27T05:40:26.727Z,1152.00
2022-07-27T05:41:26.716Z,1168.00
2022-07-27T05:42:26.718Z,1264.00
2022-07-27T05:43:26.686Z,1300.00
2022-07-27T05:44:26.676Z,1280.00
2022-07-27T05:45:26.761Z,1388.00
2022-07-27T05:46:31.070Z,1312.00
2022-07-27T05:47:27.653Z,1284.00
2022-07-27T05:48:26.640Z,1232.00
2022-07-27T05:49:26.683Z,1408.00
2022-07-27T05:50:31.631Z,1536.00
2022-07-27T05:51:26.597Z,1416.00
2022-07-27T05:52:26.597Z,1488.00
2022-07-27T05:53:26.573Z,1740.00
2022-07-27T05:54:26.564Z,1772.00
2022-07-27T05:55:26.549Z,1720.00
2022-07-27T05:56:26.541Z,1784.00
2022-07-27T05:57:26.543Z,1700.00
2022-07-27T05:58:26.528Z,1588.00
2022-07-27T05:59:26.505Z,1596.00
2022-07-27T06:00:26.498Z,1652.00
2022-07-27T06:01:31.525Z,1752.00
2022-07-27T06:02:26.498Z,1696.00
2022-07-27T06:03:26.526Z,1632.00
2022-07-27T06:04:26.451Z,1700.00
2022-07-27T06:05:26.437Z,1656.00
2022-07-27T06:06:26.428Z,1796.00
2022-07-27T06:07:26.430Z,1756.00
2022-07-27T06:08:26.405Z,1876.00
2022-07-27T06:09:26.393Z,1944.00
2022-07-27T06:10:26.381Z,1976.00
2022-07-27T06:11:26.369Z,1948.00
2022-07-27T06:12:31.398Z,1852.00
2022-07-27T06:13:28.466Z,1932.00
2022-07-27T06:14:26.339Z,1752.00
2022-07-27T06:15:26.324Z,1808.00
2022-07-27T06:16:26.378Z,1700.00
2022-07-27T06:17:26.316Z,1812.00
2022-07-27T06:18:26.309Z,1964.00
2022-07-27T06:19:36.423Z,1932.00
2022-07-27T06:20:27.539Z,2108.00
2022-07-27T06:21:26.258Z,2124.00
2022-07-27T06:22:26.249Z,2108.00
2022-07-27T06:23:31.264Z,2104.00
2022-07-27T06:24:26.223Z,1956.00
2022-07-27T06:25:34.314Z,1956.00
2022-07-27T06:26:27.198Z,2016.00
2022-07-27T06:27:29.607Z,1916.00
2022-07-27T06:28:26.196Z,1808.00
2022-07-27T06:29:26.162Z,1876.00
2022-07-27T06:30:26.152Z,1956.00
2022-07-27T06:31:26.218Z,2024.00
2022-07-27T06:32:26.130Z,2028.00
2022-07-27T06:33:26.129Z,1900.00
2022-07-27T06:34:31.134Z,2060.00
2022-07-27T06:35:26.102Z,2212.00
2022-07-27T06:36:26.088Z,2304.00
2022-07-27T06:37:26.164Z,2412.00
2022-07-27T06:38:26.063Z,2424.00
2022-07-27T06:39:26.050Z,2520.00
2022-07-27T06:40:29.577Z,2324.00
2022-07-27T06:41:26.026Z,2428.00
2022-07-27T06:42:26.026Z,2556.00
2022-07-27T06:43:26.038Z,2428.00
2022-07-27T06:44:25.992Z,2464.00
2022-07-27T06:45:31.003Z,2336.00
2022-07-27T06:46:26.010Z,2264.00
2022-07-27T06:47:28.800Z,2072.00
2022-07-27T06:48:25.947Z,1988.00
2022-07-27T06:49:26.026Z,1876.00
2022-07-27T06:50:26.019Z,1640.00
2022-07-27T06:51:25.909Z,1520.00
2022-07-27T06:52:25.914Z,1396.00
2022-07-27T06:53:25.895Z,1436.00
2022-07-27T06:54:25.879Z,1420.00
2022-07-27T06:55:25.869Z,1376.00
2022-07-27T06:56:30.877Z,1444.00
2022-07-27T06:57:25.866Z,1524.00
2022-07-27T06:58:25.856Z,1416.00
2022-07-27T06:59:25.821Z,1552.00
2022-07-27T07:00:26.952Z,1472.00
2022-07-27T07:01:25.866Z,1396.00
2022-07-27T07:02:25.801Z,1468.00
2022-07-27T07:03:25.848Z,1660.00
2022-07-27T07:04:25.793Z,2208.00
2022-07-27T07:05:25.754Z,2704.00
2022-07-27T07:06:25.741Z,3160.00
2022-07-27T07:07:30.765Z,3184.00
2022-07-27T07:08:25.722Z,2592.00
2022-07-27T07:09:25.705Z,2272.00
2022-07-27T07:10:25.790Z,1892.00
2022-07-27T07:11:25.685Z,1632.00
2022-07-27T07:12:25.727Z,1452.00
2022-07-27T07:13:25.680Z,1408.00
2022-07-27T07:14:25.658Z,1448.00
2022-07-27T07:15:25.642Z,1508.00
2022-07-27T07:16:25.692Z,1592.00
2022-07-27T07:17:25.615Z,1752.00
2022-07-27T07:18:30.643Z,2008.00
2022-07-27T07:19:25.591Z,2084.00
2022-07-27T07:20:25.587Z,2508.00
2022-07-27T07:21:25.572Z,2836.00
2022-07-27T07:22:25.560Z,3140.00
2022-07-27T07:23:25.559Z,3588.00
2022-07-27T07:24:25.538Z,4340.00
2022-07-27T07:25:25.524Z,4588.00
2022-07-27T07:26:25.513Z,4304.00
2022-07-27T07:27:25.500Z,4500.00
2022-07-27T07:28:25.519Z,4448.00
2022-07-27T07:29:30.505Z,4360.00
2022-07-27T07:30:25.468Z,3892.00
2022-07-27T07:31:25.555Z,3500.00
2022-07-27T07:32:28.875Z,3560.00
2022-07-27T07:33:26.457Z,4028.00
2022-07-27T07:34:25.421Z,3988.00
2022-07-27T07:35:25.412Z,3640.00
2022-07-27T07:36:25.398Z,3560.00
2022-07-27T07:37:31.753Z,3852.00
2022-07-27T07:38:26.385Z,3412.00
2022-07-27T07:39:31.027Z,3104.00
2022-07-27T07:40:46.760Z,3096.00
2022-07-27T07:41:26.395Z,3024.00
2022-07-27T07:42:25.331Z,2964.00
2022-07-27T07:43:25.332Z,3180.00
2022-07-27T07:44:25.308Z,3872.00
2022-07-27T07:45:25.299Z,4176.00
2022-07-27T07:46:25.329Z,4612.00
2022-07-27T07:47:25.275Z,3736.00
2022-07-27T07:48:25.285Z,3084.00
2022-07-27T07:49:39.484Z,2736.00
2022-07-27T07:50:26.270Z,2908.00
2022-07-27T07:51:30.252Z,2824.00
2022-07-27T07:52:25.219Z,2684.00
2022-07-27T07:53:25.225Z,2580.00
2022-07-27T07:54:25.195Z,2724.00
2022-07-27T07:55:25.189Z,3044.00
2022-07-27T07:56:25.178Z,3316.00
2022-07-27T07:57:25.163Z,3396.00
2022-07-27T07:58:25.163Z,3536.00
2022-07-27T07:59:25.149Z,3892.00
2022-07-27T08:00:25.128Z,4356.00
2022-07-27T08:01:25.278Z,4996.00
2022-07-27T08:02:30.158Z,5352.00
2022-07-27T08:03:25.178Z,5196.00
2022-07-27T08:04:25.091Z,5460.00
2022-07-27T08:05:25.072Z,5448.00
2022-07-27T08:06:25.065Z,5244.00
2022-07-27T08:07:25.049Z,5228.00
2022-07-27T08:08:25.120Z,5100.00
2022-07-27T08:09:25.033Z,5044.00
2022-07-27T08:10:25.042Z,4612.00
2022-07-27T08:11:25.004Z,4712.00
2022-07-27T08:12:24.998Z,4672.00
2022-07-27T08:13:30.021Z,4484.00
2022-07-27T08:14:24.994Z,4496.00
2022-07-27T08:15:29.965Z,4464.00
2022-07-27T08:16:26.048Z,5160.00
2022-07-27T08:17:24.940Z,4732.00
2022-07-27T08:18:24.926Z,3872.00
2022-07-27T08:19:24.924Z,3412.00
2022-07-27T08:20:24.904Z,3852.00
2022-07-27T08:21:24.895Z,3516.00
2022-07-27T08:22:24.878Z,3828.00
2022-07-27T08:23:24.876Z,3924.00
2022-07-27T08:24:29.898Z,3848.00
2022-07-27T08:25:24.853Z,4400.00
2022-07-27T08:26:24.833Z,4140.00
2022-07-27T08:27:24.825Z,4756.00
2022-07-27T08:28:24.868Z,4712.00
2022-07-27T08:29:24.817Z,4468.00
2022-07-27T08:30:25.794Z,4608.00
2022-07-27T08:31:26.614Z,4812.00
2022-07-27T08:32:25.828Z,4676.00
2022-07-27T08:33:24.766Z,5328.00
2022-07-27T08:34:24.759Z,5772.00
2022-07-27T08:35:29.759Z,6536.00
2022-07-27T08:36:24.721Z,6436.00
2022-07-27T08:37:24.748Z,6328.00
2022-07-27T08:38:24.707Z,6576.00
2022-07-27T08:40:20.039Z,6312.00
2022-07-27T08:40:44.262Z,5904.00
2022-07-27T08:41:25.665Z,6456.00
2022-07-27T08:42:24.652Z,6460.00
2022-07-27T08:43:25.557Z,6484.00
2022-07-27T08:44:24.642Z,6616.00
2022-07-27T08:45:24.623Z,5980.00
2022-07-27T08:46:29.675Z,5400.00
2022-07-27T08:47:24.597Z,5248.00
2022-07-27T08:48:24.596Z,5496.00
2022-07-27T08:49:41.358Z,5700.00
2022-07-27T08:50:25.645Z,6136.00
2022-07-27T08:51:24.553Z,6360.00
2022-07-27T08:52:24.549Z,6736.00
2022-07-27T08:53:24.563Z,5996.00
2022-07-27T08:54:24.530Z,6388.00
2022-07-27T08:55:24.508Z,5592.00
2022-07-27T08:56:24.505Z,5324.00
2022-07-27T08:57:29.510Z,5036.00
2022-07-27T08:58:24.480Z,9020.00
2022-07-27T08:59:24.481Z,5916.00
2022-07-27T09:00:24.451Z,16800.00
2022-07-27T09:01:24.520Z,5900.00
2022-07-27T09:02:24.625Z,5140.00
2022-07-27T09:03:24.482Z,4584.00
2022-07-27T09:04:24.419Z,4292.00
2022-07-27T09:05:24.400Z,5328.00
2022-07-27T09:06:24.385Z,3384.00
2022-07-27T09:07:24.381Z,3116.00
2022-07-27T09:08:30.929Z,3044.00
2022-07-27T09:09:24.368Z,3440.00
2022-07-27T09:10:24.344Z,3684.00
2022-07-27T09:11:24.337Z,3672.00
2022-07-27T09:12:24.320Z,3692.00
2022-07-27T09:13:24.319Z,4292.00
2022-07-27T09:14:24.309Z,4208.00
2022-07-27T09:15:24.292Z,4608.00
2022-07-27T09:16:24.324Z,4696.00
2022-07-27T09:18:25.329Z,5920.00
2022-07-27T09:19:29.280Z,6532.00
2022-07-27T09:20:24.231Z,7264.00
2022-07-27T09:21:24.236Z,6692.00
2022-07-27T09:22:24.223Z,5840.00
2022-07-27T09:23:24.204Z,5736.00
2022-07-27T09:24:45.402Z,4612.00
2022-07-27T09:25:52.042Z,4316.00
2022-07-27T09:26:34.091Z,3876.00
2022-07-27T09:27:25.158Z,4024.00
2022-07-27T09:28:24.147Z,4112.00
2022-07-27T09:29:24.133Z,3912.00
2022-07-27T09:30:29.158Z,3932.00
2022-07-27T09:31:24.227Z,4372.00
2022-07-27T09:32:24.099Z,4776.00
2022-07-27T09:33:24.094Z,4500.00
2022-07-27T09:34:24.081Z,4792.00
2022-07-27T09:35:24.082Z,5912.00
2022-07-27T09:36:24.058Z,6004.00
2022-07-27T09:37:24.052Z,5968.00
2022-07-27T09:38:24.036Z,5884.00
2022-07-27T09:39:24.026Z,5888.00
2022-07-27T09:40:25.582Z,6124.00
2022-07-27T09:41:29.029Z,6576.00
2022-07-27T09:43:05.445Z,7032.00
2022-07-27T09:44:28.659Z,16512.00
2022-07-27T09:44:31.678Z,9428.00
2022-07-27T09:45:24.976Z,8108.00
2022-07-27T09:46:25.028Z,16896.00
2022-07-27T09:47:23.965Z,28512.00
2022-07-27T09:48:23.938Z,45472.00
2022-07-27T09:49:23.987Z,10892.00
2022-07-27T09:50:23.914Z,10128.00
2022-07-27T09:52:29.904Z,7084.00
2022-07-27T09:53:42.181Z,6668.00
2022-07-27T09:54:24.852Z,7324.00
2022-07-27T09:55:23.866Z,6628.00
2022-07-27T09:56:23.834Z,7084.00
2022-07-27T09:57:23.823Z,7644.00
2022-07-27T09:58:23.807Z,7860.00
2022-07-27T09:59:23.802Z,9008.00
2022-07-27T10:00:23.792Z,8936.00
2022-07-27T10:01:23.868Z,9456.00
2022-07-27T10:02:23.862Z,9260.00
2022-07-27T10:03:28.780Z,14852.00
2022-07-27T10:04:23.811Z,23488.00
2022-07-27T10:05:23.808Z,8872.00
2022-07-27T10:06:25.295Z,7908.00
2022-07-27T10:07:23.709Z,7916.00
2022-07-27T10:08:23.697Z,8500.00
2022-07-27T10:09:23.688Z,8444.00
2022-07-27T10:10:23.682Z,8532.00
2022-07-27T10:11:23.680Z,8072.00
2022-07-27T10:12:23.657Z,8192.00
2022-07-27T10:13:23.643Z,8248.00
2022-07-27T10:14:28.657Z,8352.00
2022-07-27T10:15:23.624Z,9844.00
2022-07-27T10:16:23.635Z,8036.00
2022-07-27T10:17:23.598Z,8116.00
2022-07-27T10:18:25.672Z,8484.00
2022-07-27T10:19:23.575Z,28512.00
2022-07-27T10:20:23.567Z,12380.00
2022-07-27T10:21:23.569Z,8948.00
2022-07-27T10:22:23.542Z,8652.00
2022-07-27T10:23:23.531Z,9560.00
2022-07-27T10:24:23.518Z,10032.00
2022-07-27T10:25:32.423Z,10256.00
2022-07-27T10:26:24.504Z,9940.00
2022-07-27T10:27:23.486Z,9212.00
2022-07-27T10:28:23.537Z,8240.00
2022-07-27T10:29:23.467Z,13240.00
2022-07-27T10:30:27.590Z,9872.00
2022-07-27T10:31:23.588Z,16160.00
2022-07-27T10:32:23.436Z,9840.00
2022-07-27T10:33:23.419Z,10684.00
2022-07-27T10:34:23.407Z,11400.00
2022-07-27T10:35:23.397Z,10408.00
2022-07-27T10:36:28.418Z,9864.00
2022-07-27T10:37:23.376Z,7836.00
2022-07-27T10:38:23.361Z,10388.00
2022-07-27T10:39:23.352Z,10848.00
2022-07-27T10:40:23.341Z,10684.00
2022-07-27T10:41:23.344Z,9964.00
2022-07-27T10:42:23.318Z,10960.00
2022-07-27T10:43:23.320Z,10080.00
2022-07-27T10:44:23.294Z,9208.00
2022-07-27T10:45:23.285Z,9592.00
2022-07-27T10:46:23.343Z,12420.00
2022-07-27T10:47:28.286Z,12964.00
2022-07-27T10:48:24.721Z,16096.00
2022-07-27T10:49:23.314Z,12936.00
2022-07-27T10:50:23.230Z,11544.00
2022-07-27T10:51:23.230Z,11196.00
2022-07-27T10:52:23.206Z,10616.00
2022-07-27T10:53:23.195Z,10304.00
2022-07-27T10:54:23.572Z,9568.00
2022-07-27T10:55:23.174Z,10468.00
2022-07-27T10:56:23.176Z,10008.00
2022-07-27T10:57:23.160Z,11344.00
2022-07-27T10:58:28.168Z,8968.00
2022-07-27T10:59:23.131Z,11024.00
2022-07-27T11:00:23.132Z,15008.00
2022-07-27T11:01:23.216Z,18336.00
2022-07-27T11:02:23.093Z,9772.00
2022-07-27T11:03:23.101Z,9292.00
2022-07-27T11:04:23.126Z,9144.00
2022-07-27T11:05:58.702Z,8500.00
2022-07-27T11:06:32.881Z,8700.00
2022-07-27T11:07:26.810Z,9520.00
2022-07-27T11:08:36.611Z,9300.00
2022-07-27T11:10:24.067Z,6316.00
2022-07-27T11:11:23.011Z,7064.00
2022-07-27T11:12:23.009Z,4520.00
2022-07-27T11:13:22.972Z,4376.00
2022-07-27T11:14:30.956Z,5348.00
2022-07-27T11:15:23.948Z,6192.00
2022-07-27T11:16:24.748Z,8076.00
2022-07-27T11:18:28.268Z,9364.00
2022-07-27T11:19:22.983Z,19552.00
2022-07-27T11:20:31.622Z,9204.00
2022-07-27T11:21:26.416Z,18592.00
2022-07-27T11:22:39.624Z,6432.00
2022-07-27T11:23:50.419Z,5792.00
2022-07-27T11:24:23.847Z,5080.00
2022-07-27T11:25:22.841Z,4272.00
2022-07-27T11:26:22.840Z,4848.00
2022-07-27T11:27:25.333Z,4200.00
2022-07-27T11:28:22.802Z,4436.00
2022-07-27T11:29:22.796Z,4228.00
2022-07-27T11:30:22.872Z,4912.00
2022-07-27T11:31:52.966Z,6400.00
2022-07-27T11:32:23.780Z,6752.00
2022-07-27T11:33:22.749Z,7168.00
2022-07-27T11:34:22.735Z,14820.00
2022-07-27T11:35:22.731Z,84896.00
2022-07-27T11:36:22.727Z,10608.00
2022-07-27T11:37:22.709Z,8760.00
2022-07-27T11:38:22.691Z,7796.00
2022-07-27T11:39:54.409Z,7648.00
2022-07-27T11:40:53.755Z,8576.00
2022-07-27T11:41:47.662Z,8560.00
2022-07-27T11:42:28.672Z,9220.00
2022-07-27T11:43:22.642Z,13584.00
2022-07-27T11:44:22.626Z,64000.00
2022-07-27T11:45:22.616Z,20960.00
2022-07-27T11:46:22.684Z,16224.00
2022-07-27T11:47:22.595Z,11800.00
2022-07-27T11:48:22.580Z,8128.00
2022-07-27T11:49:22.941Z,6952.00
2022-07-27T11:50:22.583Z,6080.00
2022-07-27T11:51:22.561Z,5796.00
2022-07-27T11:52:22.537Z,6736.00
2022-07-27T11:53:27.550Z,6940.00
2022-07-27T11:54:22.518Z,7176.00
2022-07-27T11:55:22.501Z,7936.00
2022-07-27T11:56:22.511Z,8852.00
2022-07-27T11:57:22.483Z,13056.00
2022-07-27T11:58:22.474Z,19744.00
2022-07-27T11:59:22.464Z,15744.00
2022-07-27T12:00:22.459Z,21504.00
2022-07-27T12:01:22.444Z,15388.00
2022-07-27T12:02:22.676Z,15056.00
2022-07-27T12:03:22.412Z,11840.00
2022-07-27T12:04:27.586Z,12424.00
2022-07-27T12:05:22.415Z,13364.00
2022-07-27T12:06:22.391Z,9604.00
2022-07-27T12:07:22.374Z,8624.00
2022-07-27T12:08:22.370Z,7372.00
2022-07-27T12:09:22.349Z,8408.00
2022-07-27T12:10:22.344Z,11740.00
2022-07-27T12:11:29.356Z,58144.00
2022-07-27T12:12:23.315Z,98656.00
2022-07-27T12:13:22.301Z,36288.00
2022-07-27T12:14:22.292Z,102304.00
2022-07-27T12:16:23.345Z,59776.00
2022-07-27T12:17:22.286Z,30624.00
2022-07-27T12:18:22.248Z,62656.00
2022-07-27T12:19:22.237Z,90496.00
2022-07-27T12:20:22.229Z,88800.00
2022-07-27T12:21:22.244Z,93920.00
2022-07-27T12:22:22.207Z,95744.00
2022-07-27T12:23:22.192Z,94944.00
2022-07-27T12:24:22.182Z,92640.00
2022-07-27T12:25:22.169Z,88512.00
2022-07-27T12:26:22.221Z,78176.00
2022-07-27T12:27:22.171Z,89632.00
2022-07-27T12:28:27.233Z,89184.00
2022-07-27T12:29:22.149Z,90944.00
2022-07-27T12:30:22.326Z,87808.00
2022-07-27T12:31:22.179Z,69824.00
2022-07-27T12:32:22.099Z,57568.00
2022-07-27T12:33:22.107Z,59136.00
2022-07-27T12:34:22.076Z,15132.00
2022-07-27T12:35:22.068Z,12024.00
2022-07-27T12:36:22.076Z,11236.00
2022-07-27T12:37:22.044Z,9168.00
2022-07-27T12:38:22.040Z,11216.00
2022-07-27T12:39:22.019Z,11128.00
2022-07-27T12:40:22.013Z,9092.00
2022-07-27T12:41:27.075Z,7384.00
2022-07-27T12:42:22.018Z,7596.00
2022-07-27T12:43:21.999Z,7816.00
2022-07-27T12:44:21.970Z,7620.00
2022-07-27T12:45:21.966Z,7812.00
2022-07-27T12:46:22.083Z,8464.00
2022-07-27T12:47:27.125Z,8604.00
2022-07-27T12:48:22.937Z,8464.00
2022-07-27T12:49:21.990Z,7988.00
2022-07-27T12:50:21.952Z,7656.00
2022-07-27T12:51:21.905Z,6812.00
2022-07-27T12:52:21.890Z,5984.00
2022-07-27T12:53:21.868Z,5168.00
2022-07-27T12:54:26.879Z,4464.00
2022-07-27T12:55:21.871Z,4352.00
2022-07-27T12:56:27.742Z,4072.00
2022-07-27T12:57:46.681Z,4188.00
2022-07-27T12:58:22.815Z,4288.00
2022-07-27T12:59:21.814Z,4012.00
2022-07-27T13:00:21.795Z,4272.00
2022-07-27T13:01:21.816Z,4836.00
2022-07-27T13:02:21.869Z,4500.00
2022-07-27T13:03:21.756Z,4496.00
2022-07-27T13:04:21.746Z,4496.00
2022-07-27T13:05:21.744Z,4168.00
2022-07-27T13:06:21.744Z,4260.00
2022-07-27T13:07:26.744Z,4476.00
2022-07-27T13:08:21.725Z,4348.00
2022-07-27T13:09:21.713Z,4220.00
2022-07-27T13:10:21.677Z,4296.00
2022-07-27T13:11:21.670Z,3888.00
2022-07-27T13:12:21.691Z,3840.00
2022-07-27T13:13:21.646Z,3668.00
2022-07-27T13:14:21.648Z,3820.00
2022-07-27T13:15:21.621Z,3796.00
2022-07-27T13:16:21.665Z,4392.00
2022-07-27T13:17:21.616Z,4072.00
2022-07-27T13:18:23.892Z,4176.00
2022-07-27T13:19:21.579Z,4108.00
2022-07-27T13:20:26.590Z,4016.00
2022-07-27T13:21:21.558Z,3772.00
2022-07-27T13:22:21.571Z,3616.00
2022-07-27T13:23:21.539Z,3644.00
2022-07-27T13:24:21.524Z,3988.00
2022-07-27T13:25:21.514Z,3604.00
2022-07-27T13:26:21.586Z,3652.00
2022-07-27T13:27:21.506Z,3460.00
2022-07-27T13:28:21.484Z,3456.00
2022-07-27T13:29:21.469Z,3640.00
2022-07-27T13:30:21.460Z,3940.00
2022-07-27T13:31:26.592Z,4140.00
2022-07-27T13:32:21.496Z,4224.00
2022-07-27T13:33:21.430Z,3788.00
2022-07-27T13:34:21.422Z,3620.00
2022-07-27T13:35:21.401Z,3624.00
2022-07-27T13:36:21.406Z,3428.00
2022-07-27T13:37:21.391Z,3204.00
2022-07-27T13:38:21.369Z,2940.00
2022-07-27T13:39:21.379Z,2760.00
2022-07-27T13:40:21.346Z,2864.00
2022-07-27T13:41:21.335Z,2664.00
2022-07-27T13:42:26.362Z,2916.00
2022-07-27T13:43:21.329Z,3208.00
2022-07-27T13:44:49.190Z,3104.00
2022-07-27T13:45:22.455Z,2796.00
2022-07-27T13:46:21.329Z,2984.00
2022-07-27T13:47:21.268Z,2956.00
2022-07-27T13:48:21.269Z,2960.00
2022-07-27T13:49:21.312Z,2852.00
2022-07-27T13:50:21.242Z,3092.00
2022-07-27T13:51:21.227Z,2908.00
2022-07-27T13:52:21.225Z,2972.00
2022-07-27T13:53:26.244Z,3136.00
2022-07-27T13:54:21.192Z,3132.00
2022-07-27T13:55:26.229Z,3164.00
2022-07-27T13:56:23.411Z,3236.00
2022-07-27T13:57:21.169Z,3628.00
2022-07-27T13:58:21.146Z,3932.00
2022-07-27T13:59:21.135Z,4180.00
2022-07-27T14:00:21.127Z,4192.00
2022-07-27T14:01:21.198Z,4692.00
2022-07-27T14:02:22.934Z,4492.00
2022-07-27T14:03:21.088Z,4408.00
2022-07-27T14:04:26.102Z,4476.00
2022-07-27T14:05:21.069Z,5016.00
2022-07-27T14:06:21.058Z,4964.00
2022-07-27T14:07:24.869Z,5752.00
2022-07-27T14:08:22.048Z,5404.00
2022-07-27T14:09:21.023Z,4980.00
2022-07-27T14:10:21.032Z,4840.00
2022-07-27T14:11:21.001Z,4392.00
2022-07-27T14:12:21.006Z,4548.00
2022-07-27T14:13:21.030Z,4140.00
2022-07-27T14:14:24.347Z,3856.00
2022-07-27T14:15:26.979Z,4100.00
2022-07-27T14:16:20.974Z,4088.00
2022-07-27T14:17:20.946Z,3948.00
2022-07-27T14:18:20.940Z,4384.00
2022-07-27T14:19:21.059Z,4528.00
2022-07-27T14:20:20.903Z,4648.00
2022-07-27T14:21:20.890Z,4516.00
2022-07-27T14:22:20.897Z,4164.00
2022-07-27T14:23:20.878Z,3924.00
2022-07-27T14:24:20.860Z,4156.00
2022-07-27T14:25:20.853Z,4152.00
2022-07-27T14:26:25.863Z,4092.00
2022-07-27T14:27:20.830Z,3708.00
2022-07-27T14:28:21.248Z,3600.00
2022-07-27T14:29:20.806Z,3656.00
2022-07-27T14:30:21.235Z,3924.00
2022-07-27T14:31:20.866Z,4132.00
2022-07-27T14:32:20.783Z,4192.00
2022-07-27T14:33:20.761Z,3848.00
2022-07-27T14:34:20.753Z,3836.00
2022-07-27T14:35:20.745Z,4660.00
2022-07-27T14:36:20.730Z,4656.00
2022-07-27T14:37:25.755Z,4160.00
2022-07-27T14:38:28.255Z,3196.00
2022-07-27T14:39:21.698Z,2680.00
2022-07-27T14:40:20.692Z,2616.00
2022-07-27T14:41:20.670Z,2888.00
2022-07-27T14:42:20.681Z,3420.00
2022-07-27T14:43:20.651Z,4500.00
2022-07-27T14:44:20.641Z,4844.00
2022-07-27T14:45:20.630Z,4804.00
2022-07-27T14:46:20.709Z,4876.00
2022-07-27T14:47:20.610Z,4764.00
2022-07-27T14:48:48.500Z,5576.00
2022-07-27T14:49:22.291Z,4356.00
2022-07-27T14:50:20.573Z,4032.00
2022-07-27T14:51:20.568Z,3404.00
2022-07-27T14:52:20.554Z,2872.00
2022-07-27T14:53:20.593Z,2656.00
2022-07-27T14:54:20.528Z,2712.00
2022-07-27T14:55:20.519Z,2892.00
2022-07-27T14:56:20.508Z,2752.00
2022-07-27T14:57:20.493Z,2744.00
2022-07-27T14:58:20.499Z,2568.00
2022-07-27T14:59:25.495Z,2388.00
2022-07-27T15:00:20.462Z,2364.00
2022-07-27T15:01:20.587Z,2572.00
2022-07-27T15:02:20.526Z,2348.00
2022-07-27T15:03:20.439Z,2396.00
2022-07-27T15:04:20.418Z,2576.00
2022-07-27T15:05:20.408Z,2392.00
2022-07-27T15:06:20.398Z,2216.00
2022-07-27T15:07:20.382Z,2056.00
2022-07-27T15:08:20.543Z,1884.00
2022-07-27T15:09:20.367Z,1804.00
2022-07-27T15:10:25.387Z,1968.00
2022-07-27T15:11:20.337Z,2240.00
2022-07-27T15:12:20.329Z,2712.00
2022-07-27T15:13:20.332Z,3072.00
2022-07-27T15:14:20.305Z,3172.00
2022-07-27T15:15:20.294Z,3256.00
2022-07-27T15:16:20.368Z,2924.00
2022-07-27T15:17:20.271Z,2608.00
2022-07-27T15:18:20.329Z,2416.00
2022-07-27T15:19:20.263Z,2192.00
2022-07-27T15:20:20.243Z,2480.00
2022-07-27T15:21:25.249Z,2516.00
2022-07-27T15:22:20.247Z,2656.00
2022-07-27T15:23:20.215Z,2560.00
2022-07-27T15:24:20.197Z,2416.00
2022-07-27T15:25:20.180Z,2356.00
2022-07-27T15:26:20.174Z,2236.00
2022-07-27T15:27:20.159Z,2088.00
2022-07-27T15:28:20.160Z,2068.00
2022-07-27T15:29:20.138Z,2028.00
2022-07-27T15:30:20.126Z,1940.00
2022-07-27T15:31:20.130Z,1916.00
2022-07-27T15:32:25.125Z,1884.00
2022-07-27T15:33:20.143Z,1792.00
2022-07-27T15:34:20.081Z,1748.00
2022-07-27T15:35:20.072Z,1752.00
2022-07-27T15:36:32.458Z,1712.00
2022-07-27T15:37:21.048Z,1692.00
2022-07-27T15:38:20.048Z,1668.00
2022-07-27T15:39:20.032Z,1620.00
2022-07-27T15:40:20.320Z,1600.00
2022-07-27T15:41:20.029Z,1596.00
2022-07-27T15:42:19.992Z,1580.00
2022-07-27T15:43:25.013Z,1580.00
2022-07-27T15:44:19.979Z,1648.00
2022-07-27T15:45:19.957Z,1552.00
2022-07-27T15:46:27.394Z,1572.00
2022-07-27T15:47:20.935Z,1564.00
2022-07-27T15:48:19.925Z,1580.00
2022-07-27T15:49:19.971Z,1600.00
2022-07-27T15:50:19.907Z,1540.00
2022-07-27T15:51:19.891Z,1572.00
2022-07-27T15:52:19.889Z,1576.00
2022-07-27T15:53:19.868Z,1664.00
2022-07-27T15:54:24.891Z,1656.00
2022-07-27T15:55:19.845Z,1684.00
2022-07-27T15:56:19.835Z,1772.00
2022-07-27T15:57:19.844Z,1604.00
2022-07-27T15:58:19.815Z,1592.00
2022-07-27T15:59:19.815Z,1544.00
2022-07-27T16:00:19.793Z,1504.00
2022-07-27T16:01:20.919Z,1496.00
2022-07-27T16:02:24.741Z,1496.00
2022-07-27T16:03:21.736Z,1500.00
2022-07-27T16:04:19.953Z,1456.00
2022-07-27T16:05:24.757Z,1444.00
2022-07-27T16:06:20.173Z,1420.00
2022-07-27T16:07:19.717Z,1420.00
2022-07-27T16:08:19.706Z,1432.00
2022-07-27T16:09:19.711Z,1416.00
2022-07-27T16:10:19.695Z,1456.00
2022-07-27T16:11:19.668Z,1544.00